createdAt,value
2023-05-05T00:01:03.596Z,17.35
2023-05-05T00:03:30.980Z,17.34
2023-05-05T00:05:58.925Z,17.32
2023-05-05T00:08:26.306Z,17.30
2023-05-05T00:10:54.548Z,17.29
2023-05-05T00:13:22.860Z,17.30
2023-05-05T00:15:54.062Z,17.30
2023-05-05T00:18:21.708Z,17.31
2023-05-05T00:20:49.099Z,17.28
2023-05-05T00:23:18.075Z,17.26
2023-05-05T00:25:45.679Z,17.28
2023-05-05T00:28:14.322Z,17.27
2023-05-05T00:30:42.181Z,17.25
2023-05-05T00:33:11.067Z,17.24
2023-05-05T00:35:39.226Z,17.22
2023-05-05T00:38:07.716Z,17.21
2023-05-05T00:40:35.197Z,17.20
2023-05-05T00:43:02.912Z,17.18
2023-05-05T00:45:31.146Z,17.15
2023-05-05T00:48:01.371Z,17.12
2023-05-05T00:50:31.254Z,17.08
2023-05-05T00:53:04.328Z,17.02
2023-05-05T00:55:35.450Z,16.98
2023-05-05T00:58:06.613Z,16.93
2023-05-05T01:00:34.515Z,16.85
2023-05-05T01:03:02.231Z,16.83
2023-05-05T01:05:58.851Z,16.77
2023-05-05T01:09:19.518Z,16.73
2023-05-05T01:12:14.011Z,16.70
2023-05-05T01:14:56.772Z,16.63
2023-05-05T01:17:41.856Z,16.60
2023-05-05T01:20:57.182Z,16.57
2023-05-05T01:23:56.214Z,16.49
2023-05-05T01:26:52.059Z,16.44
2023-05-05T01:30:10.673Z,16.38
2023-05-05T01:32:55.403Z,16.34
2023-05-05T01:35:42.378Z,16.27
2023-05-05T01:38:26.350Z,16.23
2023-05-05T01:41:39.560Z,16.17
2023-05-05T01:44:09.375Z,16.12
2023-05-05T01:46:38.026Z,16.12
2023-05-05T01:49:08.468Z,16.11
2023-05-05T01:51:38.118Z,16.07
2023-05-05T01:54:09.288Z,16.06
2023-05-05T01:56:41.797Z,16.06
2023-05-05T01:59:11.733Z,16.05
2023-05-05T02:01:44.801Z,16.05
2023-05-05T02:04:17.835Z,16.04
2023-05-05T02:06:50.702Z,16.03
2023-05-05T02:09:19.425Z,15.97
2023-05-05T02:11:47.121Z,15.93
2023-05-05T02:14:19.452Z,15.89
2023-05-05T02:16:49.533Z,15.85
2023-05-05T02:19:21.502Z,15.81
2023-05-05T02:21:51.167Z,15.79
2023-05-05T02:24:18.607Z,15.73
2023-05-05T02:26:51.837Z,15.65
2023-05-05T02:29:28.726Z,15.58
2023-05-05T02:32:19.415Z,15.52
2023-05-05T02:34:50.165Z,15.47
2023-05-05T02:37:27.622Z,15.42
2023-05-05T02:40:06.080Z,15.33
2023-05-05T02:42:43.217Z,15.30
2023-05-05T02:45:20.089Z,15.25
2023-05-05T02:47:49.683Z,15.16
2023-05-05T02:50:18.838Z,15.13
2023-05-05T02:52:54.815Z,15.07
2023-05-05T02:55:24.130Z,15.01
2023-05-05T02:58:22.160Z,14.96
2023-05-05T03:01:42.831Z,14.92
2023-05-05T03:04:28.006Z,14.84
2023-05-05T03:07:06.853Z,14.79
2023-05-05T03:09:45.577Z,14.74
2023-05-05T03:12:27.920Z,14.67
2023-05-05T03:15:11.220Z,14.64
2023-05-05T03:17:46.378Z,14.59
2023-05-05T03:20:16.682Z,14.56
2023-05-05T03:22:48.613Z,14.50
2023-05-05T03:25:16.619Z,14.47
2023-05-05T03:27:44.582Z,14.42
2023-05-05T03:30:16.205Z,14.38
2023-05-05T03:32:49.379Z,14.32
2023-05-05T03:35:16.953Z,14.30
2023-05-05T03:37:44.512Z,14.28
2023-05-05T03:40:15.033Z,14.24
2023-05-05T03:42:42.714Z,14.21
2023-05-05T03:45:10.486Z,14.16
2023-05-05T03:47:39.154Z,14.11
2023-05-05T03:50:09.457Z,14.09
2023-05-05T03:52:37.178Z,14.05
2023-05-05T03:55:06.999Z,14.03
2023-05-05T03:57:35.675Z,13.98
2023-05-05T04:00:03.175Z,13.96
2023-05-05T04:02:43.686Z,13.93
2023-05-05T04:05:14.262Z,13.92
2023-05-05T04:07:42.123Z,13.88
2023-05-05T04:10:10.260Z,13.85
2023-05-05T04:12:37.848Z,13.82
2023-05-05T04:15:06.907Z,13.80
2023-05-05T04:17:35.185Z,13.78
2023-05-05T04:20:07.136Z,13.77
2023-05-05T04:22:34.561Z,13.75
2023-05-05T04:25:02.363Z,13.72
2023-05-05T04:27:30.438Z,13.73
2023-05-05T04:30:00.822Z,13.70
2023-05-05T04:32:29.370Z,13.73
2023-05-05T04:34:59.149Z,13.75
2023-05-05T04:37:31.735Z,13.83
2023-05-05T04:40:00.479Z,13.96
2023-05-05T04:42:28.897Z,14.12
2023-05-05T04:44:56.366Z,14.22
2023-05-05T04:47:26.952Z,14.32
2023-05-05T04:49:57.401Z,14.32
2023-05-05T04:52:24.791Z,14.37
2023-05-05T04:54:52.508Z,14.34
2023-05-05T04:57:20.326Z,14.27
2023-05-05T04:59:47.779Z,14.21
2023-05-05T05:02:15.178Z,14.16
2023-05-05T05:04:42.603Z,14.10
2023-05-05T05:07:09.848Z,14.05
2023-05-05T05:09:38.451Z,14.02
2023-05-05T05:12:07.991Z,13.99
2023-05-05T05:14:40.207Z,13.97
2023-05-05T05:17:08.024Z,13.97
2023-05-05T05:19:36.758Z,13.99
2023-05-05T05:22:05.846Z,14.01
2023-05-05T05:24:36.798Z,14.03
2023-05-05T05:27:09.787Z,14.01
2023-05-05T05:29:40.662Z,14.05
2023-05-05T05:32:08.580Z,14.10
2023-05-05T05:34:36.156Z,14.18
2023-05-05T05:37:04.947Z,14.28
2023-05-05T05:39:33.073Z,14.32
2023-05-05T05:42:03.045Z,14.38
2023-05-05T05:44:30.813Z,14.46
2023-05-05T05:46:58.249Z,14.60
2023-05-05T05:49:26.537Z,14.68
2023-05-05T05:51:54.516Z,14.75
2023-05-05T05:54:21.804Z,14.81
2023-05-05T05:56:49.349Z,14.86
2023-05-05T05:59:17.131Z,14.90
2023-05-05T06:01:45.889Z,14.97
2023-05-05T06:04:13.322Z,15.03
2023-05-05T06:06:41.133Z,15.11
2023-05-05T06:09:08.560Z,15.13
2023-05-05T06:11:37.074Z,15.24
2023-05-05T06:14:04.495Z,15.31
2023-05-05T06:16:33.166Z,15.37
2023-05-05T06:19:09.460Z,15.43
2023-05-05T06:21:37.547Z,15.50
2023-05-05T06:24:06.598Z,15.56
2023-05-05T06:26:37.796Z,15.63
2023-05-05T06:29:06.722Z,15.64
2023-05-05T06:31:36.895Z,15.69
2023-05-05T06:34:05.258Z,15.84
2023-05-05T06:36:32.591Z,15.91
2023-05-05T06:38:59.940Z,16.01
2023-05-05T06:41:28.415Z,16.13
2023-05-05T06:43:56.775Z,16.22
2023-05-05T06:46:24.095Z,16.42
2023-05-05T06:48:52.028Z,16.67
2023-05-05T06:51:23.742Z,16.83
2023-05-05T06:53:51.380Z,16.92
2023-05-05T06:56:20.958Z,16.98
2023-05-05T06:58:51.015Z,17.06
2023-05-05T07:01:19.549Z,17.10
2023-05-05T07:03:47.182Z,17.25
2023-05-05T07:06:15.607Z,17.31
2023-05-05T07:08:56.710Z,17.36
2023-05-05T07:11:27.136Z,17.42
2023-05-05T07:13:55.710Z,17.43
2023-05-05T07:16:27.211Z,17.52
2023-05-05T07:18:55.213Z,17.52
2023-05-05T07:21:22.439Z,17.58
2023-05-05T07:23:49.857Z,17.76
2023-05-05T07:26:17.335Z,17.91
2023-05-05T07:28:44.965Z,18.05
2023-05-05T07:31:12.296Z,18.16
2023-05-05T07:33:39.616Z,18.32
2023-05-05T07:36:08.293Z,18.51
2023-05-05T07:38:37.003Z,18.70
2023-05-05T07:41:12.982Z,18.78
2023-05-05T07:43:44.232Z,18.96
2023-05-05T07:46:12.618Z,19.28
2023-05-05T07:48:41.955Z,19.57
2023-05-05T07:51:10.901Z,19.88
2023-05-05T07:53:38.764Z,19.92
2023-05-05T07:56:08.950Z,19.84
2023-05-05T07:58:37.173Z,19.77
2023-05-05T08:01:06.541Z,19.85
2023-05-05T08:03:35.362Z,19.92
2023-05-05T08:06:09.580Z,20.01
2023-05-05T08:08:37.974Z,20.17
2023-05-05T08:11:07.998Z,20.35
2023-05-05T08:13:35.334Z,20.47
2023-05-05T08:16:03.020Z,20.65
2023-05-05T08:18:30.444Z,20.81
2023-05-05T08:20:58.398Z,20.92
2023-05-05T08:23:25.784Z,21.04
2023-05-05T08:25:53.213Z,21.31
2023-05-05T08:28:20.497Z,21.52
2023-05-05T08:30:47.777Z,21.76
2023-05-05T08:33:15.636Z,21.91
2023-05-05T08:35:44.028Z,22.21
2023-05-05T08:38:12.062Z,22.43
2023-05-05T08:40:41.530Z,22.82
2023-05-05T08:43:09.348Z,23.11
2023-05-05T08:45:41.946Z,23.38
2023-05-05T08:48:10.515Z,23.51
2023-05-05T08:50:42.606Z,23.48
2023-05-05T08:53:16.655Z,23.51
2023-05-05T08:55:55.517Z,23.29
2023-05-05T08:58:26.002Z,23.07
2023-05-05T09:00:56.469Z,22.87
2023-05-05T09:03:28.699Z,22.67
2023-05-05T09:05:56.956Z,22.50
2023-05-05T09:08:26.302Z,22.32
2023-05-05T09:10:55.703Z,22.05
2023-05-05T09:13:23.772Z,21.90
2023-05-05T09:15:51.114Z,21.72
2023-05-05T09:18:18.494Z,21.54
2023-05-05T09:20:46.061Z,21.41
2023-05-05T09:23:18.379Z,21.31
2023-05-05T09:26:02.697Z,21.24
2023-05-05T09:28:30.356Z,21.22
2023-05-05T09:31:15.951Z,21.19
2023-05-05T09:33:44.109Z,21.17
2023-05-05T09:36:12.315Z,21.10
2023-05-05T09:38:39.799Z,21.09
2023-05-05T09:41:07.148Z,21.11
2023-05-05T09:43:52.492Z,21.02
2023-05-05T09:46:19.979Z,20.98
2023-05-05T09:48:49.049Z,20.91
2023-05-05T09:51:18.634Z,20.81
2023-05-05T09:53:46.043Z,20.70
2023-05-05T09:56:13.439Z,20.60
2023-05-05T09:58:41.893Z,20.49
2023-05-05T10:01:23.902Z,20.37
2023-05-05T10:03:54.660Z,20.28
2023-05-05T10:06:48.641Z,20.23
2023-05-05T10:09:17.624Z,20.18
2023-05-05T10:11:47.613Z,20.07
2023-05-05T10:14:18.026Z,20.06
2023-05-05T10:16:55.556Z,20.08
2023-05-05T10:19:25.989Z,20.09
2023-05-05T10:22:08.250Z,20.11
2023-05-05T10:24:52.876Z,20.12
2023-05-05T10:27:23.715Z,20.17
2023-05-05T10:30:09.096Z,20.15
2023-05-05T10:33:00.584Z,20.11
2023-05-05T10:35:40.245Z,19.91
2023-05-05T10:38:13.334Z,19.78
2023-05-05T10:40:48.921Z,19.74
2023-05-05T10:43:17.310Z,19.71
2023-05-05T10:45:45.438Z,19.71
2023-05-05T10:48:32.865Z,19.66
2023-05-05T10:51:41.784Z,19.55
2023-05-05T10:54:28.343Z,19.43
2023-05-05T10:57:01.310Z,19.28
2023-05-05T10:59:38.366Z,19.07
2023-05-05T11:02:27.406Z,18.79
2023-05-05T11:05:23.773Z,18.28
2023-05-05T11:07:52.688Z,17.69
2023-05-05T11:10:24.188Z,17.15
2023-05-05T11:13:13.338Z,16.58
2023-05-05T11:15:41.558Z,16.12
2023-05-05T11:18:38.069Z,15.79
2023-05-05T11:21:17.090Z,15.53
2023-05-05T11:23:55.291Z,15.10
2023-05-05T11:26:51.541Z,14.67
2023-05-05T11:32:16.490Z,14.11
2023-05-05T11:34:50.944Z,13.89
2023-05-05T11:37:24.497Z,13.67
2023-05-05T11:40:37.295Z,13.50
2023-05-05T11:43:10.354Z,13.33
2023-05-05T11:45:40.719Z,13.19
2023-05-05T11:48:28.460Z,13.05
2023-05-05T11:50:55.797Z,12.96
2023-05-05T11:53:28.602Z,12.91
2023-05-05T11:56:22.773Z,12.93
2023-05-05T11:59:10.853Z,12.97
2023-05-05T12:01:42.653Z,13.01
2023-05-05T12:04:17.175Z,13.10
2023-05-05T12:06:49.139Z,13.20
2023-05-05T12:09:23.796Z,13.32
2023-05-05T12:11:58.522Z,13.41
2023-05-05T12:14:26.385Z,13.55
2023-05-05T12:17:18.576Z,13.61
2023-05-05T12:19:55.848Z,13.61
2023-05-05T12:22:30.803Z,13.55
2023-05-05T12:25:09.761Z,13.50
2023-05-05T12:27:37.382Z,13.50
2023-05-05T12:30:18.319Z,13.47
2023-05-05T12:32:46.625Z,13.46
2023-05-05T12:35:20.220Z,13.46
2023-05-05T12:37:49.693Z,13.48
2023-05-05T12:40:47.052Z,13.50
2023-05-05T12:43:39.566Z,13.51
2023-05-05T12:46:15.143Z,13.47
2023-05-05T12:48:51.755Z,13.49
2023-05-05T12:51:25.817Z,13.52
2023-05-05T12:54:12.802Z,13.57
2023-05-05T12:56:44.373Z,13.60
2023-05-05T12:59:45.485Z,13.65
2023-05-05T13:02:14.192Z,13.68
2023-05-05T13:04:54.972Z,13.73
2023-05-05T13:07:23.424Z,13.80
2023-05-05T13:09:51.944Z,13.83
2023-05-05T13:12:23.240Z,13.86
2023-05-05T13:14:58.234Z,13.88
2023-05-05T13:17:26.072Z,13.87
2023-05-05T13:19:53.569Z,13.83
2023-05-05T13:22:20.920Z,13.77
2023-05-05T13:24:52.811Z,13.73
2023-05-05T13:27:31.455Z,13.68
2023-05-05T13:30:01.358Z,13.67
2023-05-05T13:32:33.672Z,13.65
2023-05-05T13:35:01.193Z,13.62
2023-05-05T13:37:30.246Z,13.64
2023-05-05T13:40:00.517Z,13.62
2023-05-05T13:42:29.622Z,13.57
2023-05-05T13:45:00.855Z,13.47
2023-05-05T13:47:29.570Z,13.44
2023-05-05T13:49:57.436Z,13.37
2023-05-05T13:52:29.003Z,13.34
2023-05-05T13:54:58.197Z,13.31
2023-05-05T13:57:32.515Z,13.28
2023-05-05T14:00:04.458Z,13.23
2023-05-05T14:02:35.510Z,13.19
2023-05-05T14:05:04.937Z,13.16
2023-05-05T14:07:33.320Z,13.23
2023-05-05T14:10:02.691Z,13.26
2023-05-05T14:12:32.710Z,13.16
2023-05-05T14:15:00.814Z,13.22
2023-05-05T14:17:28.858Z,13.24
2023-05-05T14:19:59.751Z,13.27
2023-05-05T14:22:27.629Z,13.27
2023-05-05T14:24:55.228Z,13.30
2023-05-05T14:27:29.539Z,13.30
2023-05-05T14:29:56.967Z,13.35
2023-05-05T14:32:30.717Z,13.44
2023-05-05T14:35:06.346Z,13.52
2023-05-05T14:37:36.100Z,13.47
2023-05-05T14:40:10.317Z,13.40
2023-05-05T14:43:03.985Z,13.42
2023-05-05T14:45:46.234Z,13.49
2023-05-05T14:48:23.726Z,13.50
2023-05-05T14:51:09.206Z,13.51
2023-05-05T14:53:43.201Z,13.51
2023-05-05T14:56:24.186Z,13.51
2023-05-05T14:58:54.356Z,13.53
2023-05-05T15:01:22.254Z,13.57
2023-05-05T15:03:58.520Z,13.57
2023-05-05T15:06:30.810Z,13.57
2023-05-05T15:09:02.093Z,13.58
2023-05-05T15:11:37.511Z,13.59
2023-05-05T15:14:20.082Z,13.63
2023-05-05T15:16:48.377Z,13.66
2023-05-05T15:19:16.163Z,13.77
2023-05-05T15:21:53.105Z,13.86
2023-05-05T15:24:24.243Z,13.96
2023-05-05T15:26:54.359Z,14.01
2023-05-05T15:29:23.286Z,14.09
2023-05-05T15:31:51.047Z,14.16
2023-05-05T15:34:18.507Z,14.26
2023-05-05T15:36:53.316Z,14.61
2023-05-05T15:39:23.858Z,14.87
2023-05-05T15:41:51.172Z,15.23
2023-05-05T15:44:18.526Z,15.40
2023-05-05T15:46:50.383Z,15.39
2023-05-05T15:49:19.276Z,15.40
2023-05-05T15:51:48.957Z,15.40
2023-05-05T15:54:16.434Z,15.33
2023-05-05T15:56:43.863Z,15.30
2023-05-05T15:59:11.660Z,15.32
2023-05-05T16:01:40.408Z,15.32
2023-05-05T16:04:07.830Z,15.28
2023-05-05T16:06:35.931Z,15.25
2023-05-05T16:09:06.111Z,15.18
2023-05-05T16:11:33.577Z,15.26
2023-05-05T16:14:03.026Z,15.30
2023-05-05T16:16:31.292Z,15.36
2023-05-05T16:18:58.743Z,15.34
2023-05-05T16:21:27.819Z,15.32
2023-05-05T16:23:56.972Z,15.22
2023-05-05T16:26:24.568Z,15.12
2023-05-05T16:28:52.341Z,15.00
2023-05-05T16:31:19.735Z,14.92
2023-05-05T16:33:49.421Z,14.91
2023-05-05T16:36:22.822Z,14.90
2023-05-05T16:38:52.505Z,14.93
2023-05-05T16:41:22.573Z,14.94
2023-05-05T16:43:50.466Z,14.87
2023-05-05T16:46:18.284Z,14.83
2023-05-05T16:48:46.354Z,14.80
2023-05-05T16:51:14.048Z,14.77
2023-05-05T16:53:41.636Z,14.76
2023-05-05T16:56:14.806Z,14.76
2023-05-05T16:58:43.494Z,14.78
2023-05-05T17:01:13.969Z,14.80
2023-05-05T17:03:44.741Z,14.81
2023-05-05T17:06:14.175Z,14.80
2023-05-05T17:08:41.980Z,14.80
2023-05-05T17:11:11.796Z,14.79
2023-05-05T17:13:40.026Z,14.80
2023-05-05T17:16:08.754Z,14.81
2023-05-05T17:18:39.831Z,14.81
2023-05-05T17:21:08.469Z,14.82
2023-05-05T17:23:37.987Z,14.82
2023-05-05T17:26:12.221Z,14.79
2023-05-05T17:28:42.002Z,14.77
2023-05-05T17:31:12.598Z,14.76
2023-05-05T17:33:42.427Z,14.75
2023-05-05T17:36:14.001Z,14.74
2023-05-05T17:38:43.356Z,14.73
2023-05-05T17:41:10.670Z,14.70
2023-05-05T17:43:38.211Z,14.66
2023-05-05T17:46:05.701Z,14.67
2023-05-05T17:48:33.064Z,14.60
2023-05-05T17:51:04.451Z,14.60
2023-05-05T17:53:31.861Z,14.58
2023-05-05T17:56:01.615Z,14.54
2023-05-05T17:58:29.637Z,14.51
2023-05-05T18:00:58.450Z,14.49
2023-05-05T18:03:26.620Z,14.45
2023-05-05T18:05:54.323Z,14.42
2023-05-05T18:08:21.667Z,14.37
2023-05-05T18:10:49.100Z,14.37
2023-05-05T18:13:21.217Z,14.33
2023-05-05T18:15:52.008Z,14.25
2023-05-05T18:18:19.375Z,14.27
2023-05-05T18:20:47.006Z,14.25
2023-05-05T18:23:14.361Z,14.23
2023-05-05T18:25:41.715Z,14.21
2023-05-05T18:28:09.481Z,14.23
2023-05-05T18:30:36.821Z,14.21
2023-05-05T18:33:06.724Z,14.18
2023-05-05T18:35:35.816Z,14.19
2023-05-05T18:38:03.742Z,14.17
2023-05-05T18:40:31.646Z,14.16
2023-05-05T18:42:59.545Z,14.13
2023-05-05T18:45:26.900Z,14.12
2023-05-05T18:47:55.123Z,14.11
2023-05-05T18:50:22.792Z,14.06
2023-05-05T18:52:51.131Z,14.03
2023-05-05T18:55:21.150Z,13.94
2023-05-05T18:57:50.048Z,13.90
2023-05-05T19:00:19.857Z,13.87
2023-05-05T19:02:47.671Z,13.83
2023-05-05T19:05:15.121Z,13.78
2023-05-05T19:07:45.327Z,13.73
2023-05-05T19:10:14.782Z,13.68
2023-05-05T19:12:42.254Z,13.62
2023-05-05T19:15:11.378Z,13.59
2023-05-05T19:17:39.210Z,13.53
2023-05-05T19:20:12.444Z,13.50
2023-05-05T19:22:44.495Z,13.46
2023-05-05T19:25:14.509Z,13.42
2023-05-05T19:27:42.095Z,13.40
2023-05-05T19:30:11.812Z,13.36
2023-05-05T19:32:39.180Z,13.31
2023-05-05T19:35:08.345Z,13.28
2023-05-05T19:37:37.052Z,13.22
2023-05-05T19:40:08.768Z,13.21
2023-05-05T19:42:36.406Z,13.18
2023-05-05T19:45:04.270Z,13.12
2023-05-05T19:47:32.532Z,13.09
2023-05-05T19:50:01.042Z,13.06
2023-05-05T19:52:28.458Z,13.03
2023-05-05T19:54:56.985Z,12.99
2023-05-05T19:57:25.118Z,12.96
2023-05-05T19:59:52.427Z,12.94
2023-05-05T20:02:22.046Z,12.89
2023-05-05T20:04:51.219Z,12.87
2023-05-05T20:07:20.861Z,12.81
2023-05-05T20:09:48.188Z,12.81
2023-05-05T20:12:17.582Z,12.76
2023-05-05T20:14:46.090Z,12.75
2023-05-05T20:17:16.186Z,12.70
2023-05-05T20:19:44.138Z,12.69
2023-05-05T20:22:13.587Z,12.64
2023-05-05T20:24:43.944Z,12.63
2023-05-05T20:27:11.126Z,12.61
2023-05-05T20:29:39.120Z,12.57
2023-05-05T20:32:07.756Z,12.52
2023-05-05T20:34:35.708Z,12.49
2023-05-05T20:37:03.121Z,12.46
2023-05-05T20:39:30.482Z,12.44
2023-05-05T20:41:57.840Z,12.39
2023-05-05T20:44:25.549Z,12.38
2023-05-05T20:46:53.153Z,12.35
2023-05-05T20:49:20.690Z,12.29
2023-05-05T20:51:47.965Z,12.28
2023-05-05T20:54:15.602Z,12.25
2023-05-05T20:56:44.382Z,12.22
2023-05-05T20:59:13.146Z,12.18
2023-05-05T21:01:40.583Z,12.16
2023-05-05T21:04:08.072Z,12.11
2023-05-05T21:06:37.524Z,12.08
2023-05-05T21:09:05.654Z,12.05
2023-05-05T21:11:33.114Z,12.02
2023-05-05T21:14:00.506Z,12.00
2023-05-05T21:16:27.770Z,11.99
2023-05-05T21:18:55.090Z,11.98
2023-05-05T21:21:23.917Z,11.95
2023-05-05T21:23:51.267Z,11.98
2023-05-05T21:26:19.241Z,11.98
2023-05-05T21:28:46.979Z,11.97
2023-05-05T21:31:22.851Z,11.97
2023-05-05T21:33:50.357Z,11.96
2023-05-05T21:36:19.288Z,11.92
2023-05-05T21:38:47.071Z,11.94
2023-05-05T21:41:14.513Z,11.94
2023-05-05T21:43:44.599Z,11.93
2023-05-05T21:46:12.028Z,11.93
2023-05-05T21:48:42.400Z,11.90
2023-05-05T21:51:09.667Z,11.91
2023-05-05T21:53:37.829Z,11.91
2023-05-05T21:56:08.499Z,11.91
2023-05-05T21:58:36.297Z,11.92
2023-05-05T22:01:03.660Z,11.91
2023-05-05T22:03:31.137Z,11.93
2023-05-05T22:05:58.510Z,11.90
2023-05-05T22:08:25.817Z,11.94
2023-05-05T22:10:53.119Z,11.96
2023-05-05T22:13:20.923Z,11.94
2023-05-05T22:15:48.358Z,11.96
2023-05-05T22:18:16.064Z,11.97
2023-05-05T22:20:44.039Z,11.96
2023-05-05T22:23:12.389Z,11.95
2023-05-05T22:25:39.686Z,11.98
2023-05-05T22:28:06.947Z,11.96
2023-05-05T22:30:34.325Z,11.97
2023-05-05T22:33:01.665Z,11.97
2023-05-05T22:35:29.083Z,11.91
2023-05-05T22:37:56.483Z,11.93
2023-05-05T22:40:23.776Z,11.91
2023-05-05T22:42:51.184Z,11.88
2023-05-05T22:45:18.522Z,11.86
2023-05-05T22:47:46.051Z,11.83
2023-05-05T22:50:13.412Z,11.82
2023-05-05T22:52:40.726Z,11.81
2023-05-05T22:55:09.167Z,11.78
2023-05-05T22:57:36.872Z,11.76
2023-05-05T23:00:05.677Z,11.77
2023-05-05T23:02:33.044Z,11.75
2023-05-05T23:05:01.975Z,11.75
2023-05-05T23:07:29.361Z,11.70
2023-05-05T23:09:57.922Z,11.71
2023-05-05T23:12:26.238Z,11.69
2023-05-05T23:14:53.590Z,11.70
2023-05-05T23:17:21.056Z,11.68
2023-05-05T23:19:49.304Z,11.66
2023-05-05T23:22:16.857Z,11.67
2023-05-05T23:24:44.219Z,11.63
2023-05-05T23:27:13.313Z,11.66
2023-05-05T23:29:40.580Z,11.64
2023-05-05T23:32:08.390Z,11.66
2023-05-05T23:34:35.699Z,11.63
2023-05-05T23:37:05.268Z,11.65
2023-05-05T23:39:36.536Z,11.61
2023-05-05T23:42:03.861Z,11.64
2023-05-05T23:44:31.130Z,11.64
2023-05-05T23:46:58.399Z,11.68
2023-05-05T23:49:26.467Z,11.69
2023-05-05T23:51:54.102Z,11.71
2023-05-05T23:54:21.455Z,11.72
2023-05-05T23:56:49.533Z,11.73
2023-05-05T23:59:16.928Z,11.72
